DABC

Mohamed Boudiaf International Airport

Constantine, Algeria
TAF DABC 200500Z 2006/2106 27008KT 9000 FEW026 SCT030 PROB40 TEMPO 2006/2012 FEW023TCU PROB40 TEMPO 2006/2010 3000 -RA BR BKN015 PROB30 TEMPO 2006/2009 0300 FG BKN001 BECMG 2010/2012 24014KT TEMPO 2012/2019 5000 RA FEW023CB
Issued Valid From Valid To
Jan-20 @ 05:00 UTC
(6 hours ago)
Jan-20 @ 06:00 UTC
(5 hours ago)
Jan-21 @ 06:00 UTC
(in 19 hours)
Expired Click to View Jan-20 @ 06:00 to Jan-20 @ 10:00
TAF DABC 200500Z 2006/2106 27008KT 9000 FEW026 SCT030
Wind Visibility Clouds
270° at 8 knots 8,996 meters
  • Few at 2,600' AGL
  • Scattered at 3,000' AGL
Expired Click to View Jan-20 @ 06:00 to Jan-20 @ 09:00
PROB30 TEMPO 2006/2009 0300 FG BKN001
Visibility Clouds Conditions
306 meters
  • Broken at 100' AGL
  • Fog
Expired Click to View Jan-20 @ 06:00 to Jan-20 @ 10:00
PROB40 TEMPO 2006/2010 3000 -RA BR BKN015
Visibility Clouds Conditions
2,993 meters
  • Broken at 1,500' AGL
  • Light Rain
  • Mist
Temporary  (Probability 40%) Jan-20 @ 06:00 to Jan-20 @ 12:00
PROB40 TEMPO 2006/2010 3000 -RA BR BKN015
Clouds
  • Few at 2,300' AGL
Becoming Jan-20 @ 10:00 to Jan-21 @ 06:00
BECMG 2010/2012 24014KT
Wind Visibility Clouds
240° at 14 knots 8,996 meters
  • Few at 2,600' AGL
  • Scattered at 3,000' AGL
Temporary Jan-20 @ 12:00 to Jan-20 @ 19:00
TEMPO 2012/2019 5000 RA FEW023CB
Visibility Clouds Conditions
5,005 meters
  • Few at 2,300' AGL
  • Rain
TAF DABC 200500Z 2006/2106 27008KT 9000 FEW026 SCT030 PROB40 TEMPO 2006/2012 FEW023TCU PROB40 TEMPO 2006/2010 3000 -RA BR BKN015 PROB30 TEMPO 2006/2009 0300 FG BKN001 BECMG 2010/2012 24014KT TEMPO 2012/2019 5000 RA FEW023CB
Issued Jan-20 @ 05:00 UTC
(6 hours ago)
Valid From Jan-20 @ 06:00 UTC
(5 hours ago)
Valid To Jan-21 @ 06:00 UTC
(in 19 hours)
Jan-20 @ 06:00 - Jan-20 @ 10:00
Wind Visibility
270° at 8 knots 8,996 meters
Clouds
  • Few at 2,600' AGL
  • Scattered at 3,000' AGL
Jan-20 @ 06:00 - Jan-20 @ 09:00
Clouds
  • Broken at 100' AGL
Conditions
  • Fog
Jan-20 @ 06:00 - Jan-20 @ 10:00
Clouds
  • Broken at 1,500' AGL
Conditions
  • Light Rain
  • Mist
Probability 40% Temporary Jan-20 @ 06:00 - Jan-20 @ 12:00
Clouds
  • Few at 2,300' AGL
Becoming Jan-20 @ 10:00 - Jan-21 @ 06:00
Wind Visibility
240° at 14 knots 8,996 meters
Clouds
  • Few at 2,600' AGL
  • Scattered at 3,000' AGL
Temporary Jan-20 @ 12:00 - Jan-20 @ 19:00
Clouds
  • Few at 2,300' AGL
Conditions
  • Rain